Time;durP1;ratioP1;P1;durP2;ratioP2;P2;SDS_P1;SDS_P2;PMS_P1;PMS_P2;Temp;Humidity;BMP_temperature;BMP_pressure;BME280_temperature;BME280_humidity;BME280_pressure;Samples;Min_cycle;Max_cycle;Signal;HPM_P1;HPM_P2
2023/09/23 00:02:13;;;;;;;;;;;17.10;99.90;;;;;;4988431;28;19960;-65
2023/09/23 00:04:39;;;;;;;;;;;17.10;99.90;;;;;;4970780;28;20001;-65
2023/09/23 00:07:05;;;;;;;;;;;17.20;99.90;;;;;;4985708;28;20012;-65
2023/09/23 00:09:31;;;;;;;;;;;17.10;99.90;;;;;;4964879;28;19906;-65
2023/09/23 00:11:57;;;;;;;;;;;17.10;99.90;;;;;;4986783;28;20431;-65
2023/09/23 00:14:22;;;;;;;;;;;17.10;99.90;;;;;;4988579;28;20015;-65
2023/09/23 00:16:48;;;;;;;;;;;17.10;99.90;;;;;;4989315;28;20363;-65
2023/09/23 00:19:15;;;;;;;;;;;17.20;99.90;;;;;;4989499;28;19913;-65
2023/09/23 00:21:41;;;;;;;;;;;17.20;99.90;;;;;;4971323;28;19905;-66
2023/09/23 00:24:08;;;;;;;;;;;17.30;99.90;;;;;;4975574;28;19959;-65
2023/09/23 00:26:35;;;;;;;;;;;17.30;99.90;;;;;;4986673;28;20003;-65
2023/09/23 00:29:00;;;;;;;;;;;17.10;99.90;;;;;;4973995;28;19910;-66
2023/09/23 00:31:29;;;;;;;;;;;17.00;99.90;;;;;;4968766;28;19968;-66
2023/09/23 00:33:55;;;;;;;;;;;17.10;99.90;;;;;;4973821;28;20425;-64
2023/09/23 00:36:22;;;;;;;;;;;17.20;99.90;;;;;;4979973;28;19949;-65
2023/09/23 00:38:47;;;;;;;;;;;17.30;99.90;;;;;;4973422;28;19960;-65
2023/09/23 00:41:13;;;;;;;;;;;17.30;99.90;;;;;;4973609;28;20396;-65
2023/09/23 00:43:40;;;;;;;;;;;17.30;99.90;;;;;;4971643;28;19906;-65
2023/09/23 00:46:06;;;;;;;;;;;17.40;99.90;;;;;;4971527;28;19949;-65
2023/09/23 00:48:39;;;;;;;;;;;17.40;99.90;;;;;;4970271;28;19945;-65
2023/09/23 00:51:06;;;;;;;;;;;17.40;99.90;;;;;;4971613;28;20004;-65
2023/09/23 00:53:34;;;;;;;;;;;17.40;99.90;;;;;;4974569;28;19909;-64
2023/09/23 00:56:00;;;;;;;;;;;17.40;99.90;;;;;;4975592;28;19909;-65
2023/09/23 00:58:26;;;;;;;;;;;17.40;99.90;;;;;;4966127;28;19996;-65
2023/09/23 01:00:54;;;;;;;;;;;17.50;99.90;;;;;;4989102;28;19949;-65
2023/09/23 01:03:20;;;;;;;;;;;17.50;99.90;;;;;;4970625;28;19914;-65
2023/09/23 01:05:47;;;;;;;;;;;17.50;99.90;;;;;;4977504;28;19929;-65
2023/09/23 01:08:18;;;;;;;;;;;17.40;99.90;;;;;;4964975;28;19976;-65
2023/09/23 01:10:45;;;;;;;;;;;17.40;99.90;;;;;;4976527;28;19916;-65
2023/09/23 01:13:11;;;;;;;;;;;17.30;99.90;;;;;;4968850;28;19925;-65
2023/09/23 01:15:43;;;;;;;;;;;17.20;99.90;;;;;;4973473;28;20573;-65
2023/09/23 01:18:23;;;;;;;;;;;17.20;99.90;;;;;;4966713;28;19909;-65
2023/09/23 01:20:49;;;;;;;;;;;17.20;99.90;;;;;;4972702;28;20353;-65
2023/09/23 01:23:15;;;;;;;;;;;17.30;99.90;;;;;;4970540;28;20012;-65
2023/09/23 01:25:41;;;;;;;;;;;17.40;99.90;;;;;;4974546;28;20529;-65
2023/09/23 01:28:13;;;;;;;;;;;17.40;99.90;;;;;;4961789;28;19910;-65
2023/09/23 01:30:40;;;;;;;;;;;17.30;99.90;;;;;;4971759;28;19918;-65
2023/09/23 01:33:10;;;;;;;;;;;17.30;99.90;;;;;;4987012;28;19980;-65
2023/09/23 01:35:36;;;;;;;;;;;17.30;99.90;;;;;;4976428;28;19921;-65
2023/09/23 01:38:03;;;;;;;;;;;17.30;99.90;;;;;;4964274;28;19910;-65
2023/09/23 01:40:32;;;;;;;;;;;17.30;99.90;;;;;;4974961;28;19916;-65
2023/09/23 01:42:58;;;;;;;;;;;17.30;99.90;;;;;;4966469;28;20004;-65
2023/09/23 01:45:23;;;;;;;;;;;17.40;99.90;;;;;;4976591;28;20471;-65
2023/09/23 01:47:49;;;;;;;;;;;17.40;99.90;;;;;;4972152;28;19985;-64
2023/09/23 01:50:17;;;;;;;;;;;17.50;99.90;;;;;;4973395;28;20334;-64
2023/09/23 01:52:43;;;;;;;;;;;17.50;99.90;;;;;;4985687;28;19920;-65
2023/09/23 01:55:12;;;;;;;;;;;17.50;99.90;;;;;;4973131;28;19910;-65
2023/09/23 01:57:39;;;;;;;;;;;17.40;99.90;;;;;;4987250;28;20258;-65
2023/09/23 02:00:06;;;;;;;;;;;17.40;99.90;;;;;;4983939;28;20012;-65
2023/09/23 02:02:31;;;;;;;;;;;17.40;99.90;;;;;;4986141;28;19906;-65
2023/09/23 02:04:57;;;;;;;;;;;17.40;99.90;;;;;;4985781;28;19906;-65
2023/09/23 02:07:23;;;;;;;;;;;17.40;99.90;;;;;;4968775;28;20001;-65
2023/09/23 02:09:48;;;;;;;;;;;17.40;99.90;;;;;;4974368;28;19910;-65
2023/09/23 02:12:14;;;;;;;;;;;17.40;99.90;;;;;;4991769;28;19910;-65
2023/09/23 02:14:40;;;;;;;;;;;17.30;99.90;;;;;;4967484;28;19917;-65
2023/09/23 02:17:06;;;;;;;;;;;17.30;99.90;;;;;;4974863;28;20268;-65
2023/09/23 02:19:31;;;;;;;;;;;17.30;99.90;;;;;;4971363;28;19932;-65
2023/09/23 02:21:57;;;;;;;;;;;17.30;99.90;;;;;;4985400;28;20458;-65
2023/09/23 02:24:22;;;;;;;;;;;17.30;99.90;;;;;;4988439;28;19920;-65
2023/09/23 02:26:49;;;;;;;;;;;17.20;99.90;;;;;;4991841;28;19905;-65
2023/09/23 02:29:15;;;;;;;;;;;17.20;99.90;;;;;;4965252;28;19971;-64
2023/09/23 02:31:48;;;;;;;;;;;17.30;99.90;;;;;;4972971;28;19921;-65
2023/09/23 02:34:18;;;;;;;;;;;17.30;99.90;;;;;;4966801;28;19914;-65
2023/09/23 02:36:45;;;;;;;;;;;17.30;99.90;;;;;;4973538;28;20369;-65
2023/09/23 02:39:15;;;;;;;;;;;17.30;99.90;;;;;;4960939;28;19928;-65
2023/09/23 02:41:45;;;;;;;;;;;17.30;99.90;;;;;;4973611;28;19941;-65
2023/09/23 02:44:15;;;;;;;;;;;17.20;99.90;;;;;;4970423;28;20433;-65
2023/09/23 02:46:42;;;;;;;;;;;17.30;99.90;;;;;;4986413;28;19906;-65
2023/09/23 02:49:09;;;;;;;;;;;17.20;99.90;;;;;;4967140;28;19906;-65
2023/09/23 02:51:35;;;;;;;;;;;17.20;99.90;;;;;;4970355;28;19997;-65
2023/09/23 02:54:01;;;;;;;;;;;17.20;99.90;;;;;;4968449;28;19917;-65
2023/09/23 02:56:27;;;;;;;;;;;17.10;99.90;;;;;;4972609;28;19959;-65
2023/09/23 02:58:52;;;;;;;;;;;17.10;99.90;;;;;;4961924;28;19909;-65
2023/09/23 03:01:18;;;;;;;;;;;17.00;99.90;;;;;;4969923;28;19918;-65
2023/09/23 03:03:46;;;;;;;;;;;16.70;99.90;;;;;;4978013;28;19928;-65
2023/09/23 03:06:14;;;;;;;;;;;16.60;99.90;;;;;;4971547;28;19914;-65
2023/09/23 03:08:43;;;;;;;;;;;16.60;99.90;;;;;;4971135;28;20428;-65
2023/09/23 03:11:11;;;;;;;;;;;16.60;99.90;;;;;;4973095;28;19914;-66
2023/09/23 03:13:38;;;;;;;;;;;16.50;99.90;;;;;;4973254;28;19961;-65
2023/09/23 03:16:08;;;;;;;;;;;16.50;99.90;;;;;;4969924;28;19909;-65
2023/09/23 03:18:36;;;;;;;;;;;16.50;99.90;;;;;;4985148;28;19921;-65
2023/09/23 03:21:08;;;;;;;;;;;16.40;99.90;;;;;;4966619;28;19980;-65
2023/09/23 03:23:35;;;;;;;;;;;16.40;99.90;;;;;;4986037;28;19910;-65
2023/09/23 03:26:01;;;;;;;;;;;16.40;99.90;;;;;;4988102;28;19909;-65
2023/09/23 03:28:27;;;;;;;;;;;16.40;99.90;;;;;;4961158;28;19910;-66
2023/09/23 03:30:58;;;;;;;;;;;16.40;99.90;;;;;;4967752;28;19972;-64
2023/09/23 03:33:23;;;;;;;;;;;16.40;99.90;;;;;;4978987;28;19960;-66
2023/09/23 03:35:49;;;;;;;;;;;16.40;99.90;;;;;;4974836;28;20386;-65
2023/09/23 03:38:15;;;;;;;;;;;16.40;99.90;;;;;;4981197;28;19992;-65
2023/09/23 03:40:48;;;;;;;;;;;16.40;99.90;;;;;;4983486;28;19913;-65
2023/09/23 03:43:13;;;;;;;;;;;16.40;99.90;;;;;;4970921;28;19922;-66
2023/09/23 03:45:40;;;;;;;;;;;16.40;99.90;;;;;;4971708;28;19913;-65
2023/09/23 03:48:06;;;;;;;;;;;16.40;99.90;;;;;;4963959;28;19917;-65
2023/09/23 03:50:32;;;;;;;;;;;16.40;99.90;;;;;;4986292;28;19909;-66
2023/09/23 03:52:58;;;;;;;;;;;16.30;99.90;;;;;;4965533;28;19909;-65
2023/09/23 03:55:24;;;;;;;;;;;16.30;99.90;;;;;;4970687;28;20375;-65
2023/09/23 03:57:50;;;;;;;;;;;16.30;99.90;;;;;;4965966;28;20376;-65
2023/09/23 04:00:18;;;;;;;;;;;16.40;99.90;;;;;;4965419;28;19913;-65
2023/09/23 04:02:47;;;;;;;;;;;16.40;99.90;;;;;;4969692;28;19914;-65
2023/09/23 04:05:14;;;;;;;;;;;16.30;99.90;;;;;;4974938;28;19914;-65
2023/09/23 04:07:41;;;;;;;;;;;16.30;99.90;;;;;;4967806;28;19914;-65
2023/09/23 04:10:09;;;;;;;;;;;16.20;99.90;;;;;;4967728;28;19914;-65
2023/09/23 04:12:36;;;;;;;;;;;16.30;99.90;;;;;;4967660;28;20372;-66
2023/09/23 04:15:02;;;;;;;;;;;16.40;99.90;;;;;;4970842;28;19910;-66
2023/09/23 04:17:29;;;;;;;;;;;16.30;99.90;;;;;;4970787;28;20281;-66
2023/09/23 04:19:56;;;;;;;;;;;16.40;99.90;;;;;;4968986;28;19920;-65
2023/09/23 04:22:21;;;;;;;;;;;16.40;99.90;;;;;;4966865;28;19910;-65
2023/09/23 04:24:47;;;;;;;;;;;16.30;99.90;;;;;;4977591;28;19910;-65
2023/09/23 04:27:12;;;;;;;;;;;16.10;99.90;;;;;;4971495;28;20000;-65
2023/09/23 04:29:38;;;;;;;;;;;16.10;99.90;;;;;;4964475;28;20075;-65
2023/09/23 04:32:04;;;;;;;;;;;16.10;99.90;;;;;;4970404;28;19929;-66
2023/09/23 04:34:35;;;;;;;;;;;15.90;99.90;;;;;;4981896;28;20000;-66
2023/09/23 04:37:00;;;;;;;;;;;15.90;99.90;;;;;;4971483;28;19956;-66
2023/09/23 04:39:26;;;;;;;;;;;15.80;99.90;;;;;;4961926;28;19949;-66
2023/09/23 04:41:51;;;;;;;;;;;15.80;99.90;;;;;;4973368;28;19910;-65
2023/09/23 04:44:17;;;;;;;;;;;15.80;99.90;;;;;;4970371;28;20546;-66
2023/09/23 04:46:45;;;;;;;;;;;15.90;99.90;;;;;;4985478;28;20051;-65
2023/09/23 04:49:10;;;;;;;;;;;15.80;99.90;;;;;;4968519;28;19909;-65
2023/09/23 04:51:36;;;;;;;;;;;15.80;99.90;;;;;;4966608;28;20456;-65
2023/09/23 04:54:02;;;;;;;;;;;15.70;99.90;;;;;;4985753;28;20396;-66
2023/09/23 04:56:28;;;;;;;;;;;15.80;99.90;;;;;;4971411;28;20351;-65
2023/09/23 04:58:58;;;;;;;;;;;15.80;99.90;;;;;;4962046;28;19910;-66
2023/09/23 05:01:24;;;;;;;;;;;15.70;99.90;;;;;;4986993;28;19925;-64
2023/09/23 05:03:52;;;;;;;;;;;15.80;99.90;;;;;;4974983;28;19905;-65
2023/09/23 05:06:17;;;;;;;;;;;15.80;99.90;;;;;;4969026;28;19910;-65
2023/09/23 05:08:43;;;;;;;;;;;15.80;99.90;;;;;;4971937;28;19920;-65
2023/09/23 05:11:11;;;;;;;;;;;15.90;99.90;;;;;;4971339;28;21179;-65
2023/09/23 05:13:37;;;;;;;;;;;16.00;99.90;;;;;;4974613;28;20265;-65
2023/09/23 05:16:03;;;;;;;;;;;16.00;99.90;;;;;;4975464;28;19916;-65
2023/09/23 05:18:29;;;;;;;;;;;15.90;99.90;;;;;;4971718;28;19916;-65
2023/09/23 05:20:55;;;;;;;;;;;15.90;99.90;;;;;;4973388;28;19910;-65
2023/09/23 05:23:23;;;;;;;;;;;15.80;99.90;;;;;;4975581;28;19921;-65
2023/09/23 05:25:49;;;;;;;;;;;15.90;99.90;;;;;;4973881;28;20412;-65
2023/09/23 05:28:14;;;;;;;;;;;16.10;99.90;;;;;;4970942;28;19910;-66
2023/09/23 05:30:40;;;;;;;;;;;16.30;99.90;;;;;;4973148;28;20452;-65
2023/09/23 05:33:05;;;;;;;;;;;16.40;99.90;;;;;;4984510;28;20984;-66
2023/09/23 05:35:31;;;;;;;;;;;16.50;99.90;;;;;;4992498;28;20209;-65
2023/09/23 05:37:57;;;;;;;;;;;16.50;99.90;;;;;;4964972;28;19985;-66
2023/09/23 05:42:49;;;;;;;;;;;16.50;99.90;;;;;;4972124;28;19917;-66
2023/09/23 05:45:15;;;;;;;;;;;16.60;99.90;;;;;;4969992;28;19914;-66
2023/09/23 05:47:41;;;;;;;;;;;16.60;99.90;;;;;;4971162;28;19910;-66
2023/09/23 05:50:07;;;;;;;;;;;16.60;99.90;;;;;;4973658;28;19920;-66
2023/09/23 05:52:32;;;;;;;;;;;16.70;99.90;;;;;;4982289;28;20269;-66
2023/09/23 05:54:58;;;;;;;;;;;16.60;99.90;;;;;;4996732;28;19948;-66
2023/09/23 05:57:23;;;;;;;;;;;16.60;99.90;;;;;;4982201;28;19910;-66
2023/09/23 05:59:49;;;;;;;;;;;16.70;99.90;;;;;;4965321;28;19912;-66
2023/09/23 06:02:15;;;;;;;;;;;16.70;99.90;;;;;;4972960;28;19977;-70
2023/09/23 06:04:41;;;;;;;;;;;16.70;99.90;;;;;;4971890;28;20803;-70
2023/09/23 06:07:06;;;;;;;;;;;16.70;99.90;;;;;;4986334;28;19917;-69
2023/09/23 06:09:32;;;;;;;;;;;16.60;99.90;;;;;;4970627;28;19992;-69
2023/09/23 06:11:57;;;;;;;;;;;16.70;99.90;;;;;;4971591;28;19929;-69
2023/09/23 06:14:25;;;;;;;;;;;16.60;99.90;;;;;;4967736;28;19945;-69
2023/09/23 06:16:50;;;;;;;;;;;16.60;99.90;;;;;;4974038;28;19917;-69
2023/09/23 06:19:16;;;;;;;;;;;16.60;99.90;;;;;;4974400;28;19914;-69
2023/09/23 06:21:41;;;;;;;;;;;16.60;99.90;;;;;;4969616;28;20262;-69
2023/09/23 06:24:10;;;;;;;;;;;16.60;99.90;;;;;;4973594;28;19909;-69
2023/09/23 06:26:37;;;;;;;;;;;16.60;99.90;;;;;;4989021;28;19985;-69
2023/09/23 06:29:04;;;;;;;;;;;16.60;99.90;;;;;;4977231;28;19906;-70
2023/09/23 06:31:30;;;;;;;;;;;16.60;99.90;;;;;;4970851;28;20419;-70
2023/09/23 06:33:56;;;;;;;;;;;16.70;99.90;;;;;;4985837;28;19918;-70
2023/09/23 06:36:21;;;;;;;;;;;16.70;99.90;;;;;;4970863;28;20011;-70
2023/09/23 06:38:47;;;;;;;;;;;16.70;99.90;;;;;;4968291;28;19910;-70
2023/09/23 06:41:12;;;;;;;;;;;16.70;99.90;;;;;;4985466;28;20016;-70
2023/09/23 06:43:38;;;;;;;;;;;16.70;99.90;;;;;;4974091;28;20605;-71
2023/09/23 06:46:03;;;;;;;;;;;16.70;99.90;;;;;;4983608;28;21376;-70
2023/09/23 06:48:29;;;;;;;;;;;16.70;99.90;;;;;;4968632;28;19906;-71
2023/09/23 06:50:58;;;;;;;;;;;16.70;99.90;;;;;;4983475;28;20276;-70
2023/09/23 06:53:24;;;;;;;;;;;16.70;99.90;;;;;;4971499;28;20336;-70
2023/09/23 06:55:50;;;;;;;;;;;16.80;99.90;;;;;;4986372;28;19910;-70
2023/09/23 06:58:16;;;;;;;;;;;16.80;99.90;;;;;;4965373;28;19914;-71
2023/09/23 07:00:41;;;;;;;;;;;16.80;99.90;;;;;;4971010;28;19913;-71
2023/09/23 07:03:07;;;;;;;;;;;16.80;99.90;;;;;;4972027;28;19905;-70
2023/09/23 07:05:34;;;;;;;;;;;16.90;99.90;;;;;;4969659;28;19906;-70
2023/09/23 07:08:00;;;;;;;;;;;16.90;99.90;;;;;;4966077;28;19968;-69
2023/09/23 07:10:26;;;;;;;;;;;16.90;99.90;;;;;;4967160;28;19909;-70
2023/09/23 07:12:52;;;;;;;;;;;16.90;99.90;;;;;;4973188;28;19909;-69
2023/09/23 07:15:18;;;;;;;;;;;16.90;99.90;;;;;;4988536;28;19920;-70
2023/09/23 07:17:43;;;;;;;;;;;16.90;99.90;;;;;;4967676;28;20328;-70
2023/09/23 07:20:09;;;;;;;;;;;16.90;99.90;;;;;;4963721;28;19906;-70
2023/09/23 07:22:34;;;;;;;;;;;16.90;99.90;;;;;;4970383;28;19921;-70
2023/09/23 07:25:00;;;;;;;;;;;16.80;99.90;;;;;;4967556;28;20353;-70
2023/09/23 07:27:26;;;;;;;;;;;16.80;99.90;;;;;;4982852;28;19912;-69
2023/09/23 07:29:51;;;;;;;;;;;16.80;99.90;;;;;;4980263;28;20336;-69
2023/09/23 07:32:17;;;;;;;;;;;16.80;99.90;;;;;;4984163;28;19917;-69
2023/09/23 07:34:43;;;;;;;;;;;16.80;99.90;;;;;;4986275;28;19926;-71
2023/09/23 07:37:13;;;;;;;;;;;16.80;99.90;;;;;;4968132;28;19913;-70
2023/09/23 07:39:38;;;;;;;;;;;16.90;99.90;;;;;;4978321;28;20000;-69
2023/09/23 07:42:04;;;;;;;;;;;17.00;99.90;;;;;;4972269;28;20934;-69
2023/09/23 07:44:30;;;;;;;;;;;17.00;99.90;;;;;;4967308;28;20059;-69
2023/09/23 07:46:55;;;;;;;;;;;17.00;99.90;;;;;;4985405;28;19910;-69
2023/09/23 07:49:21;;;;;;;;;;;17.00;99.90;;;;;;4968864;28;20053;-68
2023/09/23 07:51:46;;;;;;;;;;;16.90;99.90;;;;;;4969336;28;20358;-69
2023/09/23 07:54:12;;;;;;;;;;;17.00;99.90;;;;;;4985408;28;20338;-69
2023/09/23 07:56:37;;;;;;;;;;;17.00;99.90;;;;;;4975343;28;20615;-70
2023/09/23 07:59:03;;;;;;;;;;;16.90;99.90;;;;;;4960115;28;19986;-69
2023/09/23 08:01:29;;;;;;;;;;;17.00;99.90;;;;;;4971670;28;19910;-69
2023/09/23 08:03:54;;;;;;;;;;;17.00;99.90;;;;;;4969796;28;19913;-70
2023/09/23 08:06:21;;;;;;;;;;;17.10;99.90;;;;;;4969918;28;19960;-69
2023/09/23 08:08:46;;;;;;;;;;;17.10;99.90;;;;;;4970536;28;19905;-69
2023/09/23 08:11:12;;;;;;;;;;;17.20;99.90;;;;;;4970227;28;19921;-70
2023/09/23 08:13:38;;;;;;;;;;;17.30;99.90;;;;;;4972037;28;20284;-70
2023/09/23 08:16:03;;;;;;;;;;;17.30;99.90;;;;;;4971125;28;19964;-70
2023/09/23 08:18:29;;;;;;;;;;;17.40;99.90;;;;;;4968087;28;20351;-70
2023/09/23 08:20:58;;;;;;;;;;;17.40;99.90;;;;;;4966517;28;20624;-69
2023/09/23 08:23:24;;;;;;;;;;;17.50;99.90;;;;;;4968599;28;19916;-69
2023/09/23 08:25:49;;;;;;;;;;;17.50;99.90;;;;;;4983987;28;19906;-69
2023/09/23 08:28:18;;;;;;;;;;;17.60;99.90;;;;;;4965335;28;19914;-69
2023/09/23 08:30:44;;;;;;;;;;;17.60;99.90;;;;;;4970457;28;19921;-69
2023/09/23 08:33:12;;;;;;;;;;;17.70;99.90;;;;;;4984674;28;19906;-69
2023/09/23 08:35:40;;;;;;;;;;;17.80;99.90;;;;;;4985548;28;20403;-69
2023/09/23 08:38:05;;;;;;;;;;;17.80;99.90;;;;;;4971943;28;19929;-69
2023/09/23 08:40:33;;;;;;;;;;;17.80;99.90;;;;;;4973011;28;20310;-69
2023/09/23 08:43:01;;;;;;;;;;;17.90;99.90;;;;;;4976549;28;20001;-69
2023/09/23 08:45:27;;;;;;;;;;;17.90;99.90;;;;;;4974640;28;20292;-69
2023/09/23 08:47:53;;;;;;;;;;;18.00;99.90;;;;;;4971500;28;19910;-69
2023/09/23 08:50:20;;;;;;;;;;;18.10;99.90;;;;;;4974844;28;19906;-69
2023/09/23 08:52:48;;;;;;;;;;;18.40;99.90;;;;;;4973549;28;19929;-69
2023/09/23 08:55:16;;;;;;;;;;;18.60;99.90;;;;;;4985666;28;20412;-69
2023/09/23 08:57:41;;;;;;;;;;;18.70;99.90;;;;;;4985389;28;19918;-69
2023/09/23 09:00:18;;;;;;;;;;;18.80;99.90;;;;;;4965836;28;19937;-68
2023/09/23 09:02:44;;;;;;;;;;;18.90;99.90;;;;;;4971527;28;20260;-69
2023/09/23 09:05:09;;;;;;;;;;;18.80;99.90;;;;;;4972991;28;19909;-69
2023/09/23 09:07:35;;;;;;;;;;;18.80;99.90;;;;;;4972796;28;19914;-70
2023/09/23 09:10:02;;;;;;;;;;;18.80;99.90;;;;;;4966597;28;19917;-69
2023/09/23 09:12:27;;;;;;;;;;;18.70;99.90;;;;;;4975426;28;20288;-69
2023/09/23 09:14:53;;;;;;;;;;;18.70;99.90;;;;;;4966636;28;19909;-68
2023/09/23 09:17:23;;;;;;;;;;;18.70;99.90;;;;;;4974151;28;20488;-69
2023/09/23 09:19:49;;;;;;;;;;;18.80;99.90;;;;;;4974649;28;19910;-68
2023/09/23 09:22:16;;;;;;;;;;;18.90;99.90;;;;;;4970779;28;20414;-69
2023/09/23 09:24:42;;;;;;;;;;;19.00;99.90;;;;;;4991229;28;19918;-69
2023/09/23 09:27:12;;;;;;;;;;;19.10;99.90;;;;;;4968593;28;19952;-69
2023/09/23 09:29:38;;;;;;;;;;;19.20;99.90;;;;;;4986403;28;19906;-69
2023/09/23 09:32:06;;;;;;;;;;;19.30;99.90;;;;;;4967188;28;19999;-69
2023/09/23 09:34:31;;;;;;;;;;;19.30;99.90;;;;;;4970755;28;20333;-69
2023/09/23 09:36:57;;;;;;;;;;;19.30;99.90;;;;;;4969831;28;19910;-69
2023/09/23 09:39:28;;;;;;;;;;;19.30;99.90;;;;;;4970417;28;19920;-69
2023/09/23 09:41:54;;;;;;;;;;;19.30;99.90;;;;;;4966688;28;19913;-69
2023/09/23 09:44:21;;;;;;;;;;;19.40;99.90;;;;;;4978054;28;20361;-69
2023/09/23 09:46:48;;;;;;;;;;;19.40;99.90;;;;;;4974222;28;19964;-68
2023/09/23 09:49:16;;;;;;;;;;;19.60;99.90;;;;;;4969815;28;19959;-69
2023/09/23 09:51:53;;;;;;;;;;;19.70;99.90;;;;;;4970467;28;20819;-68
2023/09/23 09:54:20;;;;;;;;;;;20.10;99.90;;;;;;4974756;28;19968;-69
2023/09/23 09:56:50;;;;;;;;;;;20.50;99.90;;;;;;4973747;28;19918;-69
2023/09/23 09:59:22;;;;;;;;;;;20.60;99.90;;;;;;4965307;28;19964;-69
2023/09/23 10:01:52;;;;;;;;;;;20.40;99.90;;;;;;4971572;28;20381;-69
2023/09/23 10:04:19;;;;;;;;;;;20.30;99.90;;;;;;4968686;28;19969;-69
2023/09/23 10:06:49;;;;;;;;;;;20.30;99.90;;;;;;4975593;28;20388;-69
2023/09/23 10:09:17;;;;;;;;;;;20.30;99.90;;;;;;4967559;28;19995;-69
2023/09/23 10:11:51;;;;;;;;;;;20.30;99.90;;;;;;4974663;28;19953;-69
2023/09/23 10:14:19;;;;;;;;;;;20.30;99.90;;;;;;4985348;28;20054;-68
2023/09/23 10:16:59;;;;;;;;;;;20.20;99.90;;;;;;4973605;28;20601;-69
2023/09/23 10:19:28;;;;;;;;;;;20.00;99.90;;;;;;4972398;28;19910;-70
2023/09/23 10:22:02;;;;;;;;;;;20.00;99.90;;;;;;4970203;28;19916;-70
2023/09/23 10:24:32;;;;;;;;;;;20.00;99.90;;;;;;4975222;28;19910;-69
2023/09/23 10:27:02;;;;;;;;;;;20.10;99.90;;;;;;4985901;28;20430;-69
2023/09/23 10:29:49;;;;;;;;;;;20.20;99.90;;;;;;4965974;28;20353;-69
2023/09/23 10:32:16;;;;;;;;;;;20.40;99.90;;;;;;4968623;28;20385;-69
2023/09/23 10:34:48;;;;;;;;;;;20.70;99.90;;;;;;4972800;28;19925;-69
2023/09/23 10:37:33;;;;;;;;;;;20.80;99.90;;;;;;4967874;28;20008;-69
2023/09/23 10:40:17;;;;;;;;;;;20.90;99.90;;;;;;4969365;28;19917;-69
2023/09/23 10:42:45;;;;;;;;;;;20.80;99.90;;;;;;4968975;28;19914;-70
2023/09/23 10:45:11;;;;;;;;;;;20.80;99.90;;;;;;4970498;28;20020;-70
2023/09/23 10:47:37;;;;;;;;;;;20.90;99.90;;;;;;4972227;28;20288;-69
2023/09/23 10:50:05;;;;;;;;;;;21.10;99.90;;;;;;4981624;28;19906;-69
2023/09/23 10:52:31;;;;;;;;;;;21.30;99.90;;;;;;4981001;28;19906;-70
2023/09/23 10:54:57;;;;;;;;;;;21.40;99.90;;;;;;4972589;28;19979;-69
2023/09/23 10:57:23;;;;;;;;;;;21.50;99.90;;;;;;4969939;28;19940;-69
2023/09/23 10:59:52;;;;;;;;;;;21.50;99.90;;;;;;4963364;28;20444;-69
2023/09/23 11:02:22;;;;;;;;;;;21.70;99.90;;;;;;4968486;28;20376;-69
2023/09/23 11:04:48;;;;;;;;;;;21.70;99.90;;;;;;4975083;28;20321;-69
2023/09/23 11:07:15;;;;;;;;;;;21.70;99.90;;;;;;4965606;28;19952;-69
2023/09/23 11:09:47;;;;;;;;;;;21.80;99.90;;;;;;4970699;28;19957;-69
2023/09/23 11:12:13;;;;;;;;;;;21.60;99.90;;;;;;4973710;28;19964;-69
2023/09/23 11:14:43;;;;;;;;;;;21.50;99.90;;;;;;4969277;28;19909;-69
2023/09/23 11:17:18;;;;;;;;;;;21.40;99.90;;;;;;4972299;28;19914;-69
2023/09/23 11:19:51;;;;;;;;;;;21.20;99.90;;;;;;4973133;28;19957;-69
2023/09/23 11:22:22;;;;;;;;;;;21.20;99.90;;;;;;4981101;28;19921;-69
2023/09/23 11:24:48;;;;;;;;;;;21.10;99.90;;;;;;4988887;28;19936;-69
2023/09/23 11:27:14;;;;;;;;;;;21.00;99.90;;;;;;4985022;28;19914;-69
2023/09/23 11:29:39;;;;;;;;;;;21.10;99.90;;;;;;4965025;28;20281;-69
2023/09/23 11:32:05;;;;;;;;;;;21.00;99.90;;;;;;4968933;28;19921;-70
2023/09/23 11:34:31;;;;;;;;;;;21.00;99.90;;;;;;4962534;28;19909;-68
2023/09/23 11:36:56;;;;;;;;;;;21.00;99.90;;;;;;4970806;28;19913;-71
2023/09/23 11:39:22;;;;;;;;;;;21.00;99.90;;;;;;4982474;28;19905;-62
2023/09/23 11:41:48;;;;;;;;;;;20.90;99.90;;;;;;4973851;28;19914;-62
2023/09/23 11:44:13;;;;;;;;;;;20.90;99.90;;;;;;4973609;28;19913;-65
2023/09/23 11:46:40;;;;;;;;;;;21.00;99.90;;;;;;4970310;28;20436;-69
2023/09/23 11:49:05;;;;;;;;;;;21.00;99.90;;;;;;4968964;28;19914;-69
2023/09/23 11:51:31;;;;;;;;;;;21.10;99.90;;;;;;4966804;28;19912;-70
2023/09/23 11:53:56;;;;;;;;;;;21.10;99.90;;;;;;4973998;28;20021;-70
2023/09/23 11:56:22;;;;;;;;;;;21.30;99.90;;;;;;4971848;28;20325;-70
2023/09/23 11:58:47;;;;;;;;;;;21.50;99.90;;;;;;4961185;28;20391;-70
2023/09/23 12:01:13;;;;;;;;;;;21.70;99.90;;;;;;4966328;28;20035;-69
2023/09/23 12:03:38;;;;;;;;;;;21.70;99.90;;;;;;4965980;28;20345;-69
2023/09/23 12:06:04;;;;;;;;;;;21.70;99.90;;;;;;4971002;28;20506;-69
2023/09/23 12:08:33;;;;;;;;;;;21.70;99.90;;;;;;4970468;28;19992;-70
2023/09/23 12:11:00;;;;;;;;;;;21.80;99.90;;;;;;4968528;28;19906;-69
2023/09/23 12:13:26;;;;;;;;;;;21.70;99.90;;;;;;4977758;28;19933;-69
2023/09/23 12:15:52;;;;;;;;;;;21.70;99.90;;;;;;4988654;28;20584;-69
2023/09/23 12:18:18;;;;;;;;;;;21.60;99.90;;;;;;4972043;28;19925;-70
2023/09/23 12:20:43;;;;;;;;;;;21.50;99.90;;;;;;4987129;28;19910;-69
2023/09/23 12:23:10;;;;;;;;;;;21.30;99.90;;;;;;4973911;28;19906;-70
2023/09/23 12:25:35;;;;;;;;;;;21.20;99.90;;;;;;4978039;28;19949;-69
2023/09/23 12:28:01;;;;;;;;;;;21.20;99.90;;;;;;4971625;28;19905;-69
2023/09/23 12:30:26;;;;;;;;;;;21.20;99.90;;;;;;4972505;28;20005;-69
2023/09/23 12:32:52;;;;;;;;;;;21.00;99.90;;;;;;4987450;28;20261;-69
2023/09/23 12:35:17;;;;;;;;;;;20.80;99.90;;;;;;4975754;28;19910;-69
2023/09/23 12:37:43;;;;;;;;;;;20.80;99.90;;;;;;4973153;28;19912;-69
2023/09/23 12:40:09;;;;;;;;;;;20.80;99.90;;;;;;4969381;28;19906;-70
2023/09/23 12:42:35;;;;;;;;;;;20.80;99.90;;;;;;4974971;28;20327;-70
2023/09/23 12:45:01;;;;;;;;;;;20.90;99.90;;;;;;4989020;28;19906;-70
2023/09/23 12:47:26;;;;;;;;;;;20.80;99.90;;;;;;4973478;28;20137;-69
2023/09/23 12:49:52;;;;;;;;;;;20.60;99.90;;;;;;4974915;28;19914;-69
2023/09/23 12:52:18;;;;;;;;;;;20.80;99.90;;;;;;4973624;28;19925;-69
2023/09/23 12:54:44;;;;;;;;;;;20.90;99.90;;;;;;4969219;28;20579;-69
2023/09/23 12:57:09;;;;;;;;;;;21.10;99.90;;;;;;4972749;28;19906;-69
2023/09/23 12:59:35;;;;;;;;;;;21.40;99.90;;;;;;4971084;28;20012;-69
2023/09/23 13:02:00;;;;;;;;;;;21.30;99.90;;;;;;4969396;28;20017;-70
2023/09/23 13:04:30;;;;;;;;;;;21.40;99.90;;;;;;4971240;28;19910;-69
2023/09/23 13:06:59;;;;;;;;;;;21.60;99.90;;;;;;4980081;28;20380;-70
2023/09/23 13:09:24;;;;;;;;;;;21.80;99.90;;;;;;4971030;28;19910;-69
2023/09/23 13:11:50;;;;;;;;;;;21.90;99.90;;;;;;4991975;28;20064;-70
2023/09/23 13:14:16;;;;;;;;;;;21.90;99.90;;;;;;4980966;28;20329;-70
2023/09/23 13:16:42;;;;;;;;;;;21.80;99.90;;;;;;4977986;28;19913;-70
2023/09/23 13:19:08;;;;;;;;;;;21.80;99.90;;;;;;4974019;28;19920;-69
2023/09/23 13:21:33;;;;;;;;;;;21.90;99.90;;;;;;4967779;28;19910;-69
2023/09/23 13:24:00;;;;;;;;;;;22.10;99.90;;;;;;4984507;28;19910;-69
2023/09/23 13:26:26;;;;;;;;;;;22.30;99.90;;;;;;4971776;28;20416;-69
2023/09/23 13:28:53;;;;;;;;;;;22.40;99.90;;;;;;4982409;28;19916;-69
2023/09/23 13:31:19;;;;;;;;;;;22.40;99.90;;;;;;4971546;28;19918;-70
2023/09/23 13:33:51;;;;;;;;;;;22.40;99.90;;;;;;4967744;28;19917;-69
2023/09/23 13:36:17;;;;;;;;;;;22.30;99.90;;;;;;4992420;28;19937;-69
2023/09/23 13:38:43;;;;;;;;;;;22.10;99.90;;;;;;4964444;28;19968;-69
2023/09/23 13:41:09;;;;;;;;;;;21.90;99.90;;;;;;4975011;28;19910;-70
2023/09/23 13:43:35;;;;;;;;;;;21.90;99.90;;;;;;4973908;28;20505;-70
2023/09/23 13:46:01;;;;;;;;;;;21.80;99.90;;;;;;4972212;28;19912;-68
2023/09/23 13:48:27;;;;;;;;;;;21.50;99.90;;;;;;4971564;28;20302;-69
2023/09/23 13:50:54;;;;;;;;;;;21.30;99.90;;;;;;4972835;28;20353;-69
2023/09/23 13:53:20;;;;;;;;;;;21.20;99.90;;;;;;4983231;28;19912;-70
2023/09/23 13:55:52;;;;;;;;;;;21.10;99.90;;;;;;4975242;28;20008;-70
2023/09/23 13:58:18;;;;;;;;;;;21.00;99.90;;;;;;4964282;28;20411;-70
2023/09/23 14:00:43;;;;;;;;;;;20.90;99.90;;;;;;4975395;28;19914;-67
2023/09/23 14:03:09;;;;;;;;;;;20.80;99.90;;;;;;4968565;28;20526;-66
2023/09/23 14:05:36;;;;;;;;;;;20.70;99.90;;;;;;4972247;28;19920;-65
2023/09/23 14:08:02;;;;;;;;;;;20.60;99.90;;;;;;4969873;28;19906;-66
2023/09/23 14:10:28;;;;;;;;;;;20.50;99.90;;;;;;4972626;28;19906;-64
2023/09/23 14:12:54;;;;;;;;;;;20.40;99.90;;;;;;4974659;28;19906;-69
2023/09/23 14:15:20;;;;;;;;;;;20.20;99.90;;;;;;4969993;28;19914;-66
2023/09/23 14:17:47;;;;;;;;;;;20.20;99.90;;;;;;4987149;28;20612;-68